Warning: Javascript must be enabled to use all the features on this page!


Page Loading - Please Wait...

* We've detected you're using a mobile device. Find our Next Generation Station Page here.
Click to hideNews Bulletins

Peak Streamflow for the Nation

USGS 06043500 Gallatin River near Gallatin Gateway, MT

Gallatin County, Montana
Hydrologic Unit Code 10020008
Latitude  45°29'50.28", Longitude 111°16'14.55" NAD83
Drainage area 819  square miles
Gage datum 5,167.67 feet above NGVD29
Output formats
Table
Graph
Tab-separated file
peakfq (watstore) format
Reselect output format
Water
Year
Date Gage
Height
(feet)
Stream-
flow
(cfs)
1890 1890-06-10   3,800
1891 1891-06-07   2,980
1892 1892-06-20   8,060
1893 1893-06-12   6,800
1894 1894-06-02   8,060
1931 1931-06-02   2,940
1932 1932-06-16   5,780
1933 1933-06-13 5.03 4,270
1934 1934-05-08 3.03 1,740
1935 1935-06-13 5.09 4,340
1936 1936-05-15 4.58 3,660
1937 1937-06-17 4.22 3,120
1938 1938-06-06 5.00 4,550
1939 1939-05-30 4.04 3,170
1940 1940-06-13 4.39 3,660
1941 1941-05-27 3.74 2,820
1942 1942-06-09 5.32 6,050
1943 1943-06-19 5.61 6,480
1944 1944-06-09 4.07 3,600
1945 1945-06-24 4.55 4,450
1946 1946-06-06 4.38 4,360
1947 1947-06-20 4.96 5,250
1948 1948-06-04 5.77 6,740
1949 1949-05-17 4.32 4,110
1950 1950-06-22 4.89 5,030
1951 1951-05-24 4.69 3,940
1952 1952-06-06 5.71 6,910
1953 1953-06-13 5.28 6,010
1954 1954-06-27 4.21 3,790
1955 1955-06-16 4.42 4,480
1956 1956-05-28 5.57 7,030
1957 1957-06-07 5.59 5,970
1958 1958-05-24 5.08 5,010
1959 1959-06-15 6.23 7,230
1960 1960-06-04 4.92 4,940
1961 1961-06-04 4.32 3,670
1962 1962-06-14 4.89 4,780
1963 1963-06-15 4.91 4,800
1964 1964-06-08 5.70 6,450
1965 1965-06-13 6.02 7,010
1966 1966-05-31 4.691 4,5302
1967 1967-06-22 5.44 5,960
1968 1968-06-20 5.56 6,570
1969 1969-05-27 5.12 5,350
1970 1970-06-09 6.48 7,600
1971 1971-06-27 6.49 7,610
1972 1972-06-08 5.33 6,030
1973 1973-06-10 5.41 6,500
1974 1974-06-17 7.38 9,100
1975 1975-07-04 6.27 7,950
1976 1976-06-22 5.27 5,870
1977 1977-06-10 4.08 3,370
1978 1978-06-10 5.12 5,230
1979 1979-05-28 4.87 4,730
1980 1980-05-23 4.76 4,150
1981 1981-06-09 5.56 5,920
1985 1985-05-26 4.31 3,650
1986 1986-06-06 6.00 6,830
1987 1987-05-17 3.43 2,390
1988 1988-06-05 4.70 4,340
1989 1989-06-16 4.55 4,280
1990 1990-06-11 4.97 5,140
1991 1991-06-06 6.50 7,640
1992 1992-06-17 4.32 3,660
1993 1993-05-22 5.31 5,740
1994 1994-05-13 4.46 4,110
1995 1995-06-06 6.31 7,330
1996 1996-06-11 6.11 7,010
1997 1997-06-02 6.71 9,160
1998 1998-06-26 5.18 5,400
1999 1999-05-29 4.98 4,990
2000 2000-05-29 4.44 4,070
2001 2001-05-15 4.26 3,740
2002 2002-06-02 5.03 5,260
2003 2003-05-30 5.71 6,710
2004 2004-06-10 4.30 3,810
2005 2005-06-23 4.52 4,220
2006 2006-05-21 5.17 5,550
2007 2007-05-14 4.04 3,350
2008 2008-06-23 5.54 6,010
2009 2009-06-01 5.28 5,500
2010 2010-06-05 5.20 5,360
2011 2011-06-30 6.51 8,410
2012 2012-06-05 5.17 5,220
2013 2013-06-11 4.48 3,950
2014 2014-05-29 5.71 6,560
2015 2015-06-02 4.54 3,980
2016 2016-06-08 4.55 4,070
2017 2017-06-05 5.04 5,040
2018 2018-06-01 5.65 6,390
2019 2019-06-07 5.30 5,600
2020 2020-06-01 5.86 7,030
2021 2021-06-05 5.06 5,230
?
  Peak Gage-Height Qualification Codes.
?
  Peak Streamflow Qualification Codes.